Hlavní strana
METAR-TAF:

METAR-TAF

Letiště :

Ashe County Airport

West Jefferson, Severní Karolína, Spojené státy americké

zeměpisná šířka: 36-26N, zeměpisná délka: 081-25W, výška: 969 m

Aktuální stav počasí

Zpráva byla vytvořena před 21 minutami, v 17:55 UTC
Západoseverozápadní vítr 10 kt s nárazy do 25 kt, proměnlivý mezi západním a severozápadním
Teplota -2°C
Vlhkost vzduchu 59%
Tlak 1013 hPa
Viditelnost: 16.1 km
Polojasno ve výšce 3100 ft
Oblačno až skoro zataženo ve výšce 3800 ft

METAR: KGEV 271755Z AUTO 29010G25KT 260V320 10SM SCT031 BKN038 M02/M09 A2991 RMK AO2 T10201091 11019 21061

Čas: 13:16 (18:16 UTC)


TAF: chybějící

Stav a předpovědi počasí z více než 4 000 letišť (zprávy METAR a TAF).

Červené a žluté tečky na mapě představují dostupné meteorologické stanice.

Když kurzor umístíte na tečku, zobrazí se název stanice.

Pak kliknutím zobrazíte stav a předpověď počasí.

Chcete-li změnit mapu, kliknutím na zelené tlačítko se znaménkem +mapu přiblížíte, kliknutím na zelené tlačítko se znaménkem – mapu oddálíte a kliknutím na zelené šipky přejdete na sousední mapy.


METAR-TAF: